sensor_id;sensor_type;location;lat;lon;timestamp;temperature;humidity
2465;DHT22;1244;54.326;10.074;2023-07-29T00:01:24;16.90;99.90
2465;DHT22;1244;54.326;10.074;2023-07-29T00:03:49;16.80;99.90
2465;DHT22;1244;54.326;10.074;2023-07-29T00:06:15;16.90;99.90
2465;DHT22;1244;54.326;10.074;2023-07-29T00:08:41;17.10;99.90
2465;DHT22;1244;54.326;10.074;2023-07-29T00:11:06;17.10;99.90
2465;DHT22;1244;54.326;10.074;2023-07-29T00:13:32;17.00;99.90
2465;DHT22;1244;54.326;10.074;2023-07-29T00:15:57;16.90;99.90
2465;DHT22;1244;54.326;10.074;2023-07-29T00:18:26;16.90;99.90
2465;DHT22;1244;54.326;10.074;2023-07-29T00:20:53;17.00;99.90
2465;DHT22;1244;54.326;10.074;2023-07-29T00:23:18;16.90;99.90
2465;DHT22;1244;54.326;10.074;2023-07-29T00:25:44;16.80;99.90
2465;DHT22;1244;54.326;10.074;2023-07-29T00:28:11;16.60;99.90
2465;DHT22;1244;54.326;10.074;2023-07-29T00:30:36;16.50;99.90
2465;DHT22;1244;54.326;10.074;2023-07-29T00:33:02;16.60;99.90
2465;DHT22;1244;54.326;10.074;2023-07-29T00:35:27;16.70;99.90
2465;DHT22;1244;54.326;10.074;2023-07-29T00:37:53;16.60;99.90
2465;DHT22;1244;54.326;10.074;2023-07-29T00:40:22;16.60;99.90
2465;DHT22;1244;54.326;10.074;2023-07-29T00:42:49;16.70;99.90
2465;DHT22;1244;54.326;10.074;2023-07-29T00:45:14;16.70;99.90
2465;DHT22;1244;54.326;10.074;2023-07-29T00:47:41;16.70;99.90
2465;DHT22;1244;54.326;10.074;2023-07-29T00:50:09;16.60;99.90
2465;DHT22;1244;54.326;10.074;2023-07-29T00:52:35;16.60;99.90
2465;DHT22;1244;54.326;10.074;2023-07-29T00:55:00;16.60;99.90
2465;DHT22;1244;54.326;10.074;2023-07-29T00:57:26;16.70;99.90
2465;DHT22;1244;54.326;10.074;2023-07-29T00:59:54;16.70;99.90
2465;DHT22;1244;54.326;10.074;2023-07-29T01:02:19;16.60;99.90
2465;DHT22;1244;54.326;10.074;2023-07-29T01:04:45;16.60;99.90
2465;DHT22;1244;54.326;10.074;2023-07-29T01:07:14;16.70;99.90
2465;DHT22;1244;54.326;10.074;2023-07-29T01:10:02;16.70;99.90
2465;DHT22;1244;54.326;10.074;2023-07-29T01:12:48;16.60;99.90
2465;DHT22;1244;54.326;10.074;2023-07-29T01:15:26;16.60;99.90
2465;DHT22;1244;54.326;10.074;2023-07-29T01:18:05;16.50;99.90
2465;DHT22;1244;54.326;10.074;2023-07-29T01:20:33;16.40;99.90
2465;DHT22;1244;54.326;10.074;2023-07-29T01:22:59;16.60;99.90
2465;DHT22;1244;54.326;10.074;2023-07-29T01:25:25;16.70;99.90
2465;DHT22;1244;54.326;10.074;2023-07-29T01:27:51;16.70;99.90
2465;DHT22;1244;54.326;10.074;2023-07-29T01:30:23;16.60;99.90
2465;DHT22;1244;54.326;10.074;2023-07-29T01:33:16;16.40;99.90
2465;DHT22;1244;54.326;10.074;2023-07-29T01:35:48;16.50;99.90
2465;DHT22;1244;54.326;10.074;2023-07-29T01:38:22;16.40;99.90
2465;DHT22;1244;54.326;10.074;2023-07-29T01:40:50;16.50;99.90
2465;DHT22;1244;54.326;10.074;2023-07-29T01:43:17;16.30;99.90
2465;DHT22;1244;54.326;10.074;2023-07-29T01:45:44;16.40;99.90
2465;DHT22;1244;54.326;10.074;2023-07-29T01:48:09;16.30;99.90
2465;DHT22;1244;54.326;10.074;2023-07-29T01:50:35;16.30;99.90
2465;DHT22;1244;54.326;10.074;2023-07-29T01:53:01;16.30;99.90
2465;DHT22;1244;54.326;10.074;2023-07-29T01:55:26;16.30;99.90
2465;DHT22;1244;54.326;10.074;2023-07-29T01:57:52;16.30;99.90
2465;DHT22;1244;54.326;10.074;2023-07-29T02:00:21;16.30;99.90
2465;DHT22;1244;54.326;10.074;2023-07-29T02:02:46;16.20;99.90
2465;DHT22;1244;54.326;10.074;2023-07-29T02:05:12;16.40;99.90
2465;DHT22;1244;54.326;10.074;2023-07-29T02:07:37;16.40;99.90
2465;DHT22;1244;54.326;10.074;2023-07-29T02:10:03;16.40;99.90
2465;DHT22;1244;54.326;10.074;2023-07-29T02:12:29;16.40;99.90
2465;DHT22;1244;54.326;10.074;2023-07-29T02:14:54;16.40;99.90
2465;DHT22;1244;54.326;10.074;2023-07-29T02:17:20;16.50;99.90
2465;DHT22;1244;54.326;10.074;2023-07-29T02:19:46;16.60;99.90
2465;DHT22;1244;54.326;10.074;2023-07-29T02:22:17;16.50;99.90
2465;DHT22;1244;54.326;10.074;2023-07-29T02:24:43;16.50;99.90
2465;DHT22;1244;54.326;10.074;2023-07-29T02:27:08;16.50;99.90
2465;DHT22;1244;54.326;10.074;2023-07-29T02:29:34;16.50;99.90
2465;DHT22;1244;54.326;10.074;2023-07-29T02:32:00;16.30;99.90
2465;DHT22;1244;54.326;10.074;2023-07-29T02:34:25;16.40;99.90
2465;DHT22;1244;54.326;10.074;2023-07-29T02:36:51;16.50;99.90
2465;DHT22;1244;54.326;10.074;2023-07-29T02:39:16;16.50;99.90
2465;DHT22;1244;54.326;10.074;2023-07-29T02:41:42;16.40;99.90
2465;DHT22;1244;54.326;10.074;2023-07-29T02:44:08;16.40;99.90
2465;DHT22;1244;54.326;10.074;2023-07-29T02:46:33;16.50;99.90
2465;DHT22;1244;54.326;10.074;2023-07-29T02:48:59;16.40;99.90
2465;DHT22;1244;54.326;10.074;2023-07-29T02:51:24;16.40;99.90
2465;DHT22;1244;54.326;10.074;2023-07-29T02:53:50;16.50;99.90
2465;DHT22;1244;54.326;10.074;2023-07-29T02:56:15;16.40;99.90
2465;DHT22;1244;54.326;10.074;2023-07-29T02:58:41;16.50;99.90
2465;DHT22;1244;54.326;10.074;2023-07-29T03:01:06;16.50;99.90
2465;DHT22;1244;54.326;10.074;2023-07-29T03:03:32;16.50;99.90
2465;DHT22;1244;54.326;10.074;2023-07-29T03:06:09;16.50;99.90
2465;DHT22;1244;54.326;10.074;2023-07-29T03:08:35;16.50;99.90
2465;DHT22;1244;54.326;10.074;2023-07-29T03:11:09;16.60;99.90
2465;DHT22;1244;54.326;10.074;2023-07-29T03:13:35;16.50;99.90
2465;DHT22;1244;54.326;10.074;2023-07-29T03:16:09;16.50;99.90
2465;DHT22;1244;54.326;10.074;2023-07-29T03:18:35;16.50;99.90
2465;DHT22;1244;54.326;10.074;2023-07-29T03:21:02;16.60;99.90
2465;DHT22;1244;54.326;10.074;2023-07-29T03:23:28;16.60;99.90
2465;DHT22;1244;54.326;10.074;2023-07-29T03:25:55;16.60;99.90
2465;DHT22;1244;54.326;10.074;2023-07-29T03:28:24;16.60;99.90
2465;DHT22;1244;54.326;10.074;2023-07-29T03:30:50;16.50;99.90
2465;DHT22;1244;54.326;10.074;2023-07-29T03:33:16;16.60;99.90
2465;DHT22;1244;54.326;10.074;2023-07-29T03:35:41;16.50;99.90
2465;DHT22;1244;54.326;10.074;2023-07-29T03:38:10;16.60;99.90
2465;DHT22;1244;54.326;10.074;2023-07-29T03:40:35;16.60;99.90
2465;DHT22;1244;54.326;10.074;2023-07-29T03:43:00;16.50;99.90
2465;DHT22;1244;54.326;10.074;2023-07-29T03:45:26;16.60;99.90
2465;DHT22;1244;54.326;10.074;2023-07-29T03:47:51;16.50;99.90
2465;DHT22;1244;54.326;10.074;2023-07-29T03:50:17;16.50;99.90
2465;DHT22;1244;54.326;10.074;2023-07-29T03:52:42;16.60;99.90
2465;DHT22;1244;54.326;10.074;2023-07-29T03:55:08;16.60;99.90
2465;DHT22;1244;54.326;10.074;2023-07-29T03:57:33;16.70;99.90
2465;DHT22;1244;54.326;10.074;2023-07-29T03:59:59;16.60;99.90
2465;DHT22;1244;54.326;10.074;2023-07-29T04:02:24;16.70;99.90
2465;DHT22;1244;54.326;10.074;2023-07-29T04:04:50;16.60;99.90
2465;DHT22;1244;54.326;10.074;2023-07-29T04:07:15;16.60;99.90
2465;DHT22;1244;54.326;10.074;2023-07-29T04:09:41;16.60;99.90
2465;DHT22;1244;54.326;10.074;2023-07-29T04:12:08;16.50;99.90
2465;DHT22;1244;54.326;10.074;2023-07-29T04:14:34;16.50;99.90
2465;DHT22;1244;54.326;10.074;2023-07-29T04:16:59;16.50;99.90
2465;DHT22;1244;54.326;10.074;2023-07-29T04:19:25;16.40;99.90
2465;DHT22;1244;54.326;10.074;2023-07-29T04:21:50;16.30;99.90
2465;DHT22;1244;54.326;10.074;2023-07-29T04:24:16;16.30;99.90
2465;DHT22;1244;54.326;10.074;2023-07-29T04:26:41;16.40;99.90
2465;DHT22;1244;54.326;10.074;2023-07-29T04:29:07;16.50;99.90
2465;DHT22;1244;54.326;10.074;2023-07-29T04:31:32;16.40;99.90
2465;DHT22;1244;54.326;10.074;2023-07-29T04:33:58;16.40;99.90
2465;DHT22;1244;54.326;10.074;2023-07-29T04:36:24;16.30;99.90
2465;DHT22;1244;54.326;10.074;2023-07-29T04:38:49;16.30;99.90
2465;DHT22;1244;54.326;10.074;2023-07-29T04:41:15;16.20;99.90
2465;DHT22;1244;54.326;10.074;2023-07-29T04:43:40;16.20;99.90
2465;DHT22;1244;54.326;10.074;2023-07-29T04:46:07;16.20;99.90
2465;DHT22;1244;54.326;10.074;2023-07-29T04:48:33;16.20;99.90
2465;DHT22;1244;54.326;10.074;2023-07-29T04:50:59;16.20;99.90
2465;DHT22;1244;54.326;10.074;2023-07-29T04:53:24;16.40;99.90
2465;DHT22;1244;54.326;10.074;2023-07-29T04:55:50;16.30;99.90
2465;DHT22;1244;54.326;10.074;2023-07-29T04:58:15;16.30;99.90
2465;DHT22;1244;54.326;10.074;2023-07-29T05:00:41;16.40;99.90
2465;DHT22;1244;54.326;10.074;2023-07-29T05:03:06;16.30;99.90
2465;DHT22;1244;54.326;10.074;2023-07-29T05:05:32;16.30;99.90
2465;DHT22;1244;54.326;10.074;2023-07-29T05:07:58;16.40;99.90
2465;DHT22;1244;54.326;10.074;2023-07-29T05:10:23;16.50;99.90
2465;DHT22;1244;54.326;10.074;2023-07-29T05:12:49;16.60;99.90
2465;DHT22;1244;54.326;10.074;2023-07-29T05:15:14;16.50;99.90
2465;DHT22;1244;54.326;10.074;2023-07-29T05:17:40;16.50;99.90
2465;DHT22;1244;54.326;10.074;2023-07-29T05:20:06;16.50;99.90
2465;DHT22;1244;54.326;10.074;2023-07-29T05:22:32;16.50;99.90
2465;DHT22;1244;54.326;10.074;2023-07-29T05:24:57;16.40;99.90
2465;DHT22;1244;54.326;10.074;2023-07-29T05:27:22;16.50;99.90
2465;DHT22;1244;54.326;10.074;2023-07-29T05:29:48;16.50;99.90
2465;DHT22;1244;54.326;10.074;2023-07-29T05:32:13;16.50;99.90
2465;DHT22;1244;54.326;10.074;2023-07-29T05:34:39;16.70;99.90
2465;DHT22;1244;54.326;10.074;2023-07-29T05:37:04;16.70;99.90
2465;DHT22;1244;54.326;10.074;2023-07-29T05:39:30;16.70;99.90
2465;DHT22;1244;54.326;10.074;2023-07-29T05:41:57;16.70;99.90
2465;DHT22;1244;54.326;10.074;2023-07-29T05:44:23;16.70;99.90
2465;DHT22;1244;54.326;10.074;2023-07-29T05:46:48;16.70;99.90
2465;DHT22;1244;54.326;10.074;2023-07-29T05:49:14;16.70;99.90
2465;DHT22;1244;54.326;10.074;2023-07-29T05:51:39;16.80;99.90
2465;DHT22;1244;54.326;10.074;2023-07-29T05:54:05;16.80;99.90
2465;DHT22;1244;54.326;10.074;2023-07-29T05:56:30;16.90;99.90
2465;DHT22;1244;54.326;10.074;2023-07-29T05:58:57;16.90;99.90
2465;DHT22;1244;54.326;10.074;2023-07-29T06:01:22;16.90;99.90
2465;DHT22;1244;54.326;10.074;2023-07-29T06:03:48;17.10;99.90
2465;DHT22;1244;54.326;10.074;2023-07-29T06:06:13;17.10;99.90
2465;DHT22;1244;54.326;10.074;2023-07-29T06:08:39;17.10;99.90
2465;DHT22;1244;54.326;10.074;2023-07-29T06:11:04;17.20;99.90
2465;DHT22;1244;54.326;10.074;2023-07-29T06:13:34;17.30;99.90
2465;DHT22;1244;54.326;10.074;2023-07-29T06:15:59;17.40;99.90
2465;DHT22;1244;54.326;10.074;2023-07-29T06:18:25;17.40;99.90
2465;DHT22;1244;54.326;10.074;2023-07-29T06:20:51;17.70;99.90
2465;DHT22;1244;54.326;10.074;2023-07-29T06:23:17;17.60;99.90
2465;DHT22;1244;54.326;10.074;2023-07-29T06:25:42;17.60;99.90
2465;DHT22;1244;54.326;10.074;2023-07-29T06:28:09;17.70;99.90
2465;DHT22;1244;54.326;10.074;2023-07-29T06:30:34;17.80;99.90
2465;DHT22;1244;54.326;10.074;2023-07-29T06:33:00;17.90;99.90
2465;DHT22;1244;54.326;10.074;2023-07-29T06:35:25;18.10;99.90
2465;DHT22;1244;54.326;10.074;2023-07-29T06:37:51;18.00;99.90
2465;DHT22;1244;54.326;10.074;2023-07-29T06:40:16;18.10;99.90
2465;DHT22;1244;54.326;10.074;2023-07-29T06:42:42;18.20;99.90
2465;DHT22;1244;54.326;10.074;2023-07-29T06:45:08;18.20;99.90
2465;DHT22;1244;54.326;10.074;2023-07-29T06:47:33;18.30;99.90
2465;DHT22;1244;54.326;10.074;2023-07-29T06:49:59;18.40;99.90
2465;DHT22;1244;54.326;10.074;2023-07-29T06:52:25;18.50;99.90
2465;DHT22;1244;54.326;10.074;2023-07-29T06:54:50;18.50;99.90
2465;DHT22;1244;54.326;10.074;2023-07-29T06:57:16;18.60;99.90
2465;DHT22;1244;54.326;10.074;2023-07-29T06:59:41;18.50;99.90
2465;DHT22;1244;54.326;10.074;2023-07-29T07:02:07;18.50;99.90
2465;DHT22;1244;54.326;10.074;2023-07-29T07:04:32;18.60;99.90
2465;DHT22;1244;54.326;10.074;2023-07-29T07:06:58;18.50;99.90
2465;DHT22;1244;54.326;10.074;2023-07-29T07:09:23;18.60;99.90
2465;DHT22;1244;54.326;10.074;2023-07-29T07:11:49;18.80;99.90
2465;DHT22;1244;54.326;10.074;2023-07-29T07:14:14;18.60;99.90
2465;DHT22;1244;54.326;10.074;2023-07-29T07:16:40;18.70;99.90
2465;DHT22;1244;54.326;10.074;2023-07-29T07:19:06;18.70;99.90
2465;DHT22;1244;54.326;10.074;2023-07-29T07:21:31;18.80;99.90
2465;DHT22;1244;54.326;10.074;2023-07-29T07:23:58;18.90;99.90
2465;DHT22;1244;54.326;10.074;2023-07-29T07:26:23;18.90;99.90
2465;DHT22;1244;54.326;10.074;2023-07-29T07:28:49;19.00;99.90
2465;DHT22;1244;54.326;10.074;2023-07-29T07:31:14;19.10;99.90
2465;DHT22;1244;54.326;10.074;2023-07-29T07:33:41;19.10;99.90
2465;DHT22;1244;54.326;10.074;2023-07-29T07:36:07;19.10;99.90
2465;DHT22;1244;54.326;10.074;2023-07-29T07:38:32;19.00;99.90
2465;DHT22;1244;54.326;10.074;2023-07-29T07:40:58;19.10;99.90
2465;DHT22;1244;54.326;10.074;2023-07-29T07:43:23;19.10;99.90
2465;DHT22;1244;54.326;10.074;2023-07-29T07:45:49;19.20;99.90
2465;DHT22;1244;54.326;10.074;2023-07-29T07:48:15;19.20;99.90
2465;DHT22;1244;54.326;10.074;2023-07-29T07:50:42;19.40;99.90
2465;DHT22;1244;54.326;10.074;2023-07-29T07:53:08;19.50;99.90
2465;DHT22;1244;54.326;10.074;2023-07-29T07:55:33;19.50;99.90
2465;DHT22;1244;54.326;10.074;2023-07-29T07:57:59;19.50;99.90
2465;DHT22;1244;54.326;10.074;2023-07-29T08:00:24;19.60;99.90
2465;DHT22;1244;54.326;10.074;2023-07-29T08:02:49;19.70;99.90
2465;DHT22;1244;54.326;10.074;2023-07-29T08:05:15;19.60;99.90
2465;DHT22;1244;54.326;10.074;2023-07-29T08:07:40;19.80;99.90
2465;DHT22;1244;54.326;10.074;2023-07-29T08:10:06;19.90;99.90
2465;DHT22;1244;54.326;10.074;2023-07-29T08:12:32;20.10;99.90
2465;DHT22;1244;54.326;10.074;2023-07-29T08:14:58;20.10;99.90
2465;DHT22;1244;54.326;10.074;2023-07-29T08:17:23;19.90;99.90
2465;DHT22;1244;54.326;10.074;2023-07-29T08:19:49;19.90;99.90
2465;DHT22;1244;54.326;10.074;2023-07-29T08:22:14;19.80;99.90
2465;DHT22;1244;54.326;10.074;2023-07-29T08:24:42;19.90;99.90
2465;DHT22;1244;54.326;10.074;2023-07-29T08:27:09;20.00;99.90
2465;DHT22;1244;54.326;10.074;2023-07-29T08:29:35;20.30;99.90
2465;DHT22;1244;54.326;10.074;2023-07-29T08:32:00;20.60;99.90
2465;DHT22;1244;54.326;10.074;2023-07-29T08:34:26;20.50;99.90
2465;DHT22;1244;54.326;10.074;2023-07-29T08:36:51;20.50;99.90
2465;DHT22;1244;54.326;10.074;2023-07-29T08:39:17;20.60;99.90
2465;DHT22;1244;54.326;10.074;2023-07-29T08:42:01;20.70;99.90
2465;DHT22;1244;54.326;10.074;2023-07-29T08:44:34;20.80;99.90
2465;DHT22;1244;54.326;10.074;2023-07-29T08:47:00;20.90;99.90
2465;DHT22;1244;54.326;10.074;2023-07-29T08:49:26;20.80;99.90
2465;DHT22;1244;54.326;10.074;2023-07-29T08:51:54;20.80;99.90
2465;DHT22;1244;54.326;10.074;2023-07-29T08:54:20;21.00;99.90
2465;DHT22;1244;54.326;10.074;2023-07-29T08:56:45;21.20;99.90
2465;DHT22;1244;54.326;10.074;2023-07-29T08:59:12;21.50;99.90
2465;DHT22;1244;54.326;10.074;2023-07-29T09:01:38;21.40;99.90
2465;DHT22;1244;54.326;10.074;2023-07-29T09:04:04;21.60;99.90
2465;DHT22;1244;54.326;10.074;2023-07-29T09:06:31;21.90;99.90
2465;DHT22;1244;54.326;10.074;2023-07-29T09:08:58;21.50;99.90
2465;DHT22;1244;54.326;10.074;2023-07-29T09:11:24;21.20;99.90
2465;DHT22;1244;54.326;10.074;2023-07-29T09:13:50;20.90;99.90
2465;DHT22;1244;54.326;10.074;2023-07-29T09:16:15;20.80;99.90
2465;DHT22;1244;54.326;10.074;2023-07-29T09:18:41;20.60;99.90
2465;DHT22;1244;54.326;10.074;2023-07-29T09:21:06;20.50;99.90
2465;DHT22;1244;54.326;10.074;2023-07-29T09:23:42;20.40;99.90
2465;DHT22;1244;54.326;10.074;2023-07-29T09:26:08;20.30;99.90
2465;DHT22;1244;54.326;10.074;2023-07-29T09:28:35;20.30;99.90
2465;DHT22;1244;54.326;10.074;2023-07-29T09:31:01;20.40;99.90
2465;DHT22;1244;54.326;10.074;2023-07-29T09:33:28;20.40;99.90
2465;DHT22;1244;54.326;10.074;2023-07-29T09:35:54;20.50;99.90
2465;DHT22;1244;54.326;10.074;2023-07-29T09:38:29;21.30;99.90
2465;DHT22;1244;54.326;10.074;2023-07-29T09:40:56;21.70;99.90
2465;DHT22;1244;54.326;10.074;2023-07-29T09:43:26;22.30;99.90
2465;DHT22;1244;54.326;10.074;2023-07-29T09:45:54;21.90;99.90
2465;DHT22;1244;54.326;10.074;2023-07-29T09:48:22;21.60;99.90
2465;DHT22;1244;54.326;10.074;2023-07-29T09:50:48;21.70;99.90
2465;DHT22;1244;54.326;10.074;2023-07-29T09:53:14;22.40;99.90
2465;DHT22;1244;54.326;10.074;2023-07-29T09:55:40;22.70;99.90
2465;DHT22;1244;54.326;10.074;2023-07-29T09:58:11;22.40;99.90
2465;DHT22;1244;54.326;10.074;2023-07-29T10:00:36;22.60;99.90
2465;DHT22;1244;54.326;10.074;2023-07-29T10:03:04;23.30;99.90
2465;DHT22;1244;54.326;10.074;2023-07-29T10:05:30;23.60;99.90
2465;DHT22;1244;54.326;10.074;2023-07-29T10:07:56;23.20;99.90
2465;DHT22;1244;54.326;10.074;2023-07-29T10:10:22;23.40;99.90
2465;DHT22;1244;54.326;10.074;2023-07-29T10:12:47;22.80;99.90
2465;DHT22;1244;54.326;10.074;2023-07-29T10:15:13;22.50;99.90
2465;DHT22;1244;54.326;10.074;2023-07-29T10:17:40;22.20;99.90
2465;DHT22;1244;54.326;10.074;2023-07-29T10:20:10;22.20;99.90
2465;DHT22;1244;54.326;10.074;2023-07-29T10:22:38;22.40;99.90
2465;DHT22;1244;54.326;10.074;2023-07-29T10:25:07;22.70;99.90
2465;DHT22;1244;54.326;10.074;2023-07-29T10:27:49;23.50;99.90
2465;DHT22;1244;54.326;10.074;2023-07-29T10:30:17;24.40;99.90
2465;DHT22;1244;54.326;10.074;2023-07-29T10:32:44;24.50;99.90
2465;DHT22;1244;54.326;10.074;2023-07-29T10:35:13;25.20;99.90
2465;DHT22;1244;54.326;10.074;2023-07-29T10:37:39;25.40;99.90
2465;DHT22;1244;54.326;10.074;2023-07-29T10:40:11;25.60;99.90
2465;DHT22;1244;54.326;10.074;2023-07-29T10:42:38;25.00;99.90
2465;DHT22;1244;54.326;10.074;2023-07-29T10:45:20;25.50;99.90
2465;DHT22;1244;54.326;10.074;2023-07-29T10:47:46;25.50;99.90
2465;DHT22;1244;54.326;10.074;2023-07-29T10:50:20;25.40;99.90
2465;DHT22;1244;54.326;10.074;2023-07-29T10:52:49;25.90;99.90
2465;DHT22;1244;54.326;10.074;2023-07-29T10:55:35;26.10;99.90
2465;DHT22;1244;54.326;10.074;2023-07-29T10:58:12;26.60;99.90
2465;DHT22;1244;54.326;10.074;2023-07-29T11:00:40;26.60;99.90
2465;DHT22;1244;54.326;10.074;2023-07-29T11:03:07;26.30;99.90
2465;DHT22;1244;54.326;10.074;2023-07-29T11:05:53;26.60;99.90
2465;DHT22;1244;54.326;10.074;2023-07-29T11:08:28;26.50;99.90
2465;DHT22;1244;54.326;10.074;2023-07-29T11:11:01;26.20;99.90
2465;DHT22;1244;54.326;10.074;2023-07-29T11:13:28;25.70;99.90
2465;DHT22;1244;54.326;10.074;2023-07-29T11:15:55;25.50;99.90
2465;DHT22;1244;54.326;10.074;2023-07-29T11:18:21;25.10;99.90
2465;DHT22;1244;54.326;10.074;2023-07-29T11:20:47;25.20;99.90
2465;DHT22;1244;54.326;10.074;2023-07-29T11:23:14;25.20;99.90
2465;DHT22;1244;54.326;10.074;2023-07-29T11:25:40;25.20;99.90
2465;DHT22;1244;54.326;10.074;2023-07-29T11:28:06;25.10;99.90
2465;DHT22;1244;54.326;10.074;2023-07-29T11:30:33;25.10;99.90
2465;DHT22;1244;54.326;10.074;2023-07-29T11:32:59;25.50;99.90
2465;DHT22;1244;54.326;10.074;2023-07-29T11:35:25;25.50;99.90
2465;DHT22;1244;54.326;10.074;2023-07-29T11:37:52;24.70;99.90
2465;DHT22;1244;54.326;10.074;2023-07-29T11:40:20;24.30;99.90
2465;DHT22;1244;54.326;10.074;2023-07-29T11:42:47;23.90;99.90
2465;DHT22;1244;54.326;10.074;2023-07-29T11:45:14;24.00;99.90
2465;DHT22;1244;54.326;10.074;2023-07-29T11:47:39;24.20;99.90
2465;DHT22;1244;54.326;10.074;2023-07-29T11:50:07;25.70;99.90
2465;DHT22;1244;54.326;10.074;2023-07-29T11:52:37;26.60;99.90
2465;DHT22;1244;54.326;10.074;2023-07-29T11:55:05;27.60;99.90
2465;DHT22;1244;54.326;10.074;2023-07-29T11:57:34;28.20;99.90
2465;DHT22;1244;54.326;10.074;2023-07-29T12:00:06;28.30;99.90
2465;DHT22;1244;54.326;10.074;2023-07-29T12:02:33;29.00;99.90
2465;DHT22;1244;54.326;10.074;2023-07-29T12:05:00;28.90;99.90
2465;DHT22;1244;54.326;10.074;2023-07-29T12:07:26;29.10;99.90
2465;DHT22;1244;54.326;10.074;2023-07-29T12:09:52;29.10;99.90
2465;DHT22;1244;54.326;10.074;2023-07-29T12:12:17;29.20;99.90
2465;DHT22;1244;54.326;10.074;2023-07-29T12:14:46;29.50;99.90
2465;DHT22;1244;54.326;10.074;2023-07-29T12:17:12;28.30;99.90
2465;DHT22;1244;54.326;10.074;2023-07-29T12:19:39;27.40;99.90
2465;DHT22;1244;54.326;10.074;2023-07-29T12:22:06;27.30;99.90
2465;DHT22;1244;54.326;10.074;2023-07-29T12:24:38;26.60;99.90
2465;DHT22;1244;54.326;10.074;2023-07-29T12:27:04;25.70;99.90
2465;DHT22;1244;54.326;10.074;2023-07-29T12:29:30;24.70;99.90
2465;DHT22;1244;54.326;10.074;2023-07-29T12:32:00;24.30;99.90
2465;DHT22;1244;54.326;10.074;2023-07-29T12:34:27;23.80;99.90
2465;DHT22;1244;54.326;10.074;2023-07-29T12:36:54;23.90;99.90
2465;DHT22;1244;54.326;10.074;2023-07-29T12:39:24;23.80;99.90
2465;DHT22;1244;54.326;10.074;2023-07-29T12:41:51;23.50;99.90
2465;DHT22;1244;54.326;10.074;2023-07-29T12:44:17;23.90;99.90
2465;DHT22;1244;54.326;10.074;2023-07-29T12:46:43;23.90;99.90
2465;DHT22;1244;54.326;10.074;2023-07-29T12:49:08;24.60;99.90
2465;DHT22;1244;54.326;10.074;2023-07-29T12:51:34;25.50;99.90
2465;DHT22;1244;54.326;10.074;2023-07-29T12:54:00;26.90;99.90
2465;DHT22;1244;54.326;10.074;2023-07-29T12:56:25;26.40;99.90
2465;DHT22;1244;54.326;10.074;2023-07-29T12:58:51;25.40;99.90
2465;DHT22;1244;54.326;10.074;2023-07-29T13:01:17;25.90;99.90
2465;DHT22;1244;54.326;10.074;2023-07-29T13:03:45;25.70;99.90
2465;DHT22;1244;54.326;10.074;2023-07-29T13:06:11;24.70;99.90
2465;DHT22;1244;54.326;10.074;2023-07-29T13:08:36;24.40;99.90
2465;DHT22;1244;54.326;10.074;2023-07-29T13:11:03;24.30;99.90
2465;DHT22;1244;54.326;10.074;2023-07-29T13:13:28;24.00;99.90
2465;DHT22;1244;54.326;10.074;2023-07-29T13:15:54;24.50;99.90
2465;DHT22;1244;54.326;10.074;2023-07-29T13:18:20;25.50;99.90
2465;DHT22;1244;54.326;10.074;2023-07-29T13:20:46;26.10;99.90
2465;DHT22;1244;54.326;10.074;2023-07-29T13:23:11;25.50;99.90
2465;DHT22;1244;54.326;10.074;2023-07-29T13:25:37;25.20;99.90
2465;DHT22;1244;54.326;10.074;2023-07-29T13:28:03;24.90;99.90
2465;DHT22;1244;54.326;10.074;2023-07-29T13:30:30;24.50;99.90
2465;DHT22;1244;54.326;10.074;2023-07-29T13:32:56;24.10;99.90
2465;DHT22;1244;54.326;10.074;2023-07-29T13:35:22;24.50;99.90
2465;DHT22;1244;54.326;10.074;2023-07-29T13:37:47;24.50;99.90
2465;DHT22;1244;54.326;10.074;2023-07-29T13:40:13;25.60;99.90
2465;DHT22;1244;54.326;10.074;2023-07-29T13:42:38;26.00;99.90
2465;DHT22;1244;54.326;10.074;2023-07-29T13:45:04;25.90;99.90
2465;DHT22;1244;54.326;10.074;2023-07-29T13:47:30;25.70;99.90
2465;DHT22;1244;54.326;10.074;2023-07-29T13:49:55;26.30;99.90
2465;DHT22;1244;54.326;10.074;2023-07-29T13:52:21;26.60;99.90
2465;DHT22;1244;54.326;10.074;2023-07-29T13:54:46;26.70;99.90
2465;DHT22;1244;54.326;10.074;2023-07-29T13:57:13;26.40;99.90
2465;DHT22;1244;54.326;10.074;2023-07-29T13:59:38;26.10;99.90
2465;DHT22;1244;54.326;10.074;2023-07-29T14:02:07;24.90;99.90
2465;DHT22;1244;54.326;10.074;2023-07-29T14:04:33;24.60;99.90
2465;DHT22;1244;54.326;10.074;2023-07-29T14:06:59;24.50;99.90
2465;DHT22;1244;54.326;10.074;2023-07-29T14:09:25;24.40;99.90
2465;DHT22;1244;54.326;10.074;2023-07-29T14:11:51;25.00;99.90
2465;DHT22;1244;54.326;10.074;2023-07-29T14:14:16;25.20;99.90
2465;DHT22;1244;54.326;10.074;2023-07-29T14:16:42;24.90;99.90
2465;DHT22;1244;54.326;10.074;2023-07-29T14:19:07;24.80;99.90
2465;DHT22;1244;54.326;10.074;2023-07-29T14:21:33;24.60;99.90
2465;DHT22;1244;54.326;10.074;2023-07-29T14:23:58;24.70;99.90
2465;DHT22;1244;54.326;10.074;2023-07-29T14:26:24;24.80;99.90
2465;DHT22;1244;54.326;10.074;2023-07-29T14:28:50;25.40;99.90
2465;DHT22;1244;54.326;10.074;2023-07-29T14:31:16;25.70;99.90
2465;DHT22;1244;54.326;10.074;2023-07-29T14:33:43;25.20;99.90
2465;DHT22;1244;54.326;10.074;2023-07-29T14:36:09;24.50;99.90
2465;DHT22;1244;54.326;10.074;2023-07-29T14:38:35;24.50;99.90
2465;DHT22;1244;54.326;10.074;2023-07-29T14:41:01;24.50;99.90
2465;DHT22;1244;54.326;10.074;2023-07-29T14:43:27;24.60;99.90
2465;DHT22;1244;54.326;10.074;2023-07-29T14:45:53;24.90;99.90
2465;DHT22;1244;54.326;10.074;2023-07-29T14:48:19;24.50;99.90
2465;DHT22;1244;54.326;10.074;2023-07-29T14:50:44;24.70;99.90
2465;DHT22;1244;54.326;10.074;2023-07-29T14:53:10;25.00;99.90
2465;DHT22;1244;54.326;10.074;2023-07-29T14:55:37;25.10;99.90
2465;DHT22;1244;54.326;10.074;2023-07-29T14:58:02;24.80;99.90
2465;DHT22;1244;54.326;10.074;2023-07-29T15:00:28;25.20;99.90
2465;DHT22;1244;54.326;10.074;2023-07-29T15:02:54;24.90;99.90
2465;DHT22;1244;54.326;10.074;2023-07-29T15:05:19;25.00;99.90
2465;DHT22;1244;54.326;10.074;2023-07-29T15:07:45;24.90;99.90
2465;DHT22;1244;54.326;10.074;2023-07-29T15:10:13;25.20;99.90
2465;DHT22;1244;54.326;10.074;2023-07-29T15:12:39;25.10;99.90
2465;DHT22;1244;54.326;10.074;2023-07-29T15:15:05;24.90;99.90
2465;DHT22;1244;54.326;10.074;2023-07-29T15:17:31;24.60;99.90
2465;DHT22;1244;54.326;10.074;2023-07-29T15:19:57;24.30;99.90
2465;DHT22;1244;54.326;10.074;2023-07-29T15:22:22;24.40;99.90
2465;DHT22;1244;54.326;10.074;2023-07-29T15:24:48;24.40;99.90
2465;DHT22;1244;54.326;10.074;2023-07-29T15:27:13;24.60;99.90
2465;DHT22;1244;54.326;10.074;2023-07-29T15:29:39;24.50;99.90
2465;DHT22;1244;54.326;10.074;2023-07-29T15:32:05;24.20;99.90
2465;DHT22;1244;54.326;10.074;2023-07-29T15:34:31;24.40;99.90
2465;DHT22;1244;54.326;10.074;2023-07-29T15:36:57;24.40;99.90
2465;DHT22;1244;54.326;10.074;2023-07-29T15:39:23;24.20;99.90
2465;DHT22;1244;54.326;10.074;2023-07-29T15:41:49;24.10;99.90